sensor_id;sensor_type;location;lat;lon;timestamp;P1;durP1;ratioP1;P2;durP2;ratioP2
74900;SDS011;63461;51.416;6.758;2023-01-06T00:00:30;7.33;;;2.43;;
74900;SDS011;63461;51.416;6.758;2023-01-06T00:02:57;7.03;;;2.53;;
74900;SDS011;63461;51.416;6.758;2023-01-06T00:05:23;5.93;;;2.43;;
74900;SDS011;63461;51.416;6.758;2023-01-06T00:07:49;6.27;;;2.27;;
74900;SDS011;63461;51.416;6.758;2023-01-06T00:10:18;11.03;;;2.50;;
74900;SDS011;63461;51.416;6.758;2023-01-06T00:12:44;8.17;;;2.20;;
74900;SDS011;63461;51.416;6.758;2023-01-06T00:15:11;5.33;;;2.20;;
74900;SDS011;63461;51.416;6.758;2023-01-06T00:17:37;7.10;;;2.30;;
74900;SDS011;63461;51.416;6.758;2023-01-06T00:20:03;7.00;;;2.30;;
74900;SDS011;63461;51.416;6.758;2023-01-06T00:22:30;8.17;;;2.50;;
74900;SDS011;63461;51.416;6.758;2023-01-06T00:24:55;5.90;;;2.60;;
74900;SDS011;63461;51.416;6.758;2023-01-06T00:27:21;6.57;;;2.50;;
74900;SDS011;63461;51.416;6.758;2023-01-06T00:29:47;8.17;;;2.50;;
74900;SDS011;63461;51.416;6.758;2023-01-06T00:32:16;9.47;;;2.37;;
74900;SDS011;63461;51.416;6.758;2023-01-06T00:34:42;7.80;;;3.10;;
74900;SDS011;63461;51.416;6.758;2023-01-06T00:37:08;9.37;;;3.17;;
74900;SDS011;63461;51.416;6.758;2023-01-06T00:39:34;14.27;;;4.63;;
74900;SDS011;63461;51.416;6.758;2023-01-06T00:42:00;13.80;;;4.63;;
74900;SDS011;63461;51.416;6.758;2023-01-06T00:44:29;14.57;;;4.67;;
74900;SDS011;63461;51.416;6.758;2023-01-06T00:46:56;13.70;;;5.07;;
74900;SDS011;63461;51.416;6.758;2023-01-06T00:49:22;15.63;;;5.53;;
74900;SDS011;63461;51.416;6.758;2023-01-06T00:51:48;16.67;;;5.17;;
74900;SDS011;63461;51.416;6.758;2023-01-06T00:54:14;17.60;;;5.70;;
74900;SDS011;63461;51.416;6.758;2023-01-06T00:56:41;13.43;;;5.00;;
74900;SDS011;63461;51.416;6.758;2023-01-06T00:59:08;16.53;;;4.87;;
74900;SDS011;63461;51.416;6.758;2023-01-06T01:01:34;13.60;;;4.70;;
74900;SDS011;63461;51.416;6.758;2023-01-06T01:04:00;13.27;;;4.40;;
74900;SDS011;63461;51.416;6.758;2023-01-06T01:06:26;10.73;;;3.73;;
74900;SDS011;63461;51.416;6.758;2023-01-06T01:08:53;10.03;;;3.50;;
74900;SDS011;63461;51.416;6.758;2023-01-06T01:11:19;8.53;;;3.33;;
74900;SDS011;63461;51.416;6.758;2023-01-06T01:14:04;12.87;;;3.33;;
74900;SDS011;63461;51.416;6.758;2023-01-06T01:16:30;12.13;;;3.70;;
74900;SDS011;63461;51.416;6.758;2023-01-06T01:18:56;12.53;;;3.73;;
74900;SDS011;63461;51.416;6.758;2023-01-06T01:21:22;11.53;;;4.83;;
74900;SDS011;63461;51.416;6.758;2023-01-06T01:23:48;11.97;;;5.20;;
74900;SDS011;63461;51.416;6.758;2023-01-06T01:26:14;14.67;;;5.20;;
74900;SDS011;63461;51.416;6.758;2023-01-06T01:28:40;15.13;;;5.30;;
74900;SDS011;63461;51.416;6.758;2023-01-06T01:31:06;8.50;;;4.23;;
74900;SDS011;63461;51.416;6.758;2023-01-06T01:33:31;7.93;;;2.70;;
74900;SDS011;63461;51.416;6.758;2023-01-06T01:36:03;8.50;;;2.43;;
74900;SDS011;63461;51.416;6.758;2023-01-06T01:38:30;9.57;;;3.40;;
74900;SDS011;63461;51.416;6.758;2023-01-06T01:40:56;11.13;;;3.30;;
74900;SDS011;63461;51.416;6.758;2023-01-06T01:43:22;9.13;;;3.50;;
74900;SDS011;63461;51.416;6.758;2023-01-06T01:45:49;10.30;;;3.73;;
74900;SDS011;63461;51.416;6.758;2023-01-06T01:48:27;8.57;;;2.97;;
74900;SDS011;63461;51.416;6.758;2023-01-06T01:50:57;7.73;;;3.30;;
74900;SDS011;63461;51.416;6.758;2023-01-06T01:53:38;8.40;;;3.50;;
74900;SDS011;63461;51.416;6.758;2023-01-06T01:56:07;10.20;;;3.50;;
74900;SDS011;63461;51.416;6.758;2023-01-06T01:58:41;15.20;;;4.23;;
74900;SDS011;63461;51.416;6.758;2023-01-06T02:01:12;12.10;;;3.40;;
74900;SDS011;63461;51.416;6.758;2023-01-06T02:03:39;8.80;;;2.63;;
74900;SDS011;63461;51.416;6.758;2023-01-06T02:06:09;10.27;;;2.37;;
74900;SDS011;63461;51.416;6.758;2023-01-06T02:11:39;8.87;;;1.80;;
74900;SDS011;63461;51.416;6.758;2023-01-06T02:14:13;6.47;;;1.40;;
74900;SDS011;63461;51.416;6.758;2023-01-06T02:36:53;17.27;;;4.77;;
74900;SDS011;63461;51.416;6.758;2023-01-06T02:47:16;10.77;;;3.53;;
74900;SDS011;63461;51.416;6.758;2023-01-06T02:49:56;12.27;;;3.50;;
74900;SDS011;63461;51.416;6.758;2023-01-06T02:52:31;10.80;;;3.43;;
74900;SDS011;63461;51.416;6.758;2023-01-06T03:00:33;11.37;;;3.13;;
74900;SDS011;63461;51.416;6.758;2023-01-06T03:03:02;5.43;;;2.40;;
74900;SDS011;63461;51.416;6.758;2023-01-06T03:05:32;12.60;;;2.23;;
74900;SDS011;63461;51.416;6.758;2023-01-06T03:08:00;10.83;;;1.80;;
74900;SDS011;63461;51.416;6.758;2023-01-06T03:10:30;5.33;;;1.70;;
74900;SDS011;63461;51.416;6.758;2023-01-06T03:15:33;6.07;;;1.40;;
74900;SDS011;63461;51.416;6.758;2023-01-06T03:18:00;7.03;;;1.50;;
74900;SDS011;63461;51.416;6.758;2023-01-06T03:20:26;6.20;;;1.43;;
74900;SDS011;63461;51.416;6.758;2023-01-06T03:22:53;4.83;;;1.60;;
74900;SDS011;63461;51.416;6.758;2023-01-06T03:25:19;5.03;;;1.70;;
74900;SDS011;63461;51.416;6.758;2023-01-06T03:27:47;4.50;;;1.33;;
74900;SDS011;63461;51.416;6.758;2023-01-06T03:30:13;6.47;;;1.20;;
74900;SDS011;63461;51.416;6.758;2023-01-06T03:38:27;7.07;;;1.93;;
74900;SDS011;63461;51.416;6.758;2023-01-06T03:44:34;7.70;;;2.03;;
74900;SDS011;63461;51.416;6.758;2023-01-06T03:47:13;6.23;;;2.00;;
74900;SDS011;63461;51.416;6.758;2023-01-06T03:49:51;4.27;;;1.87;;
74900;SDS011;63461;51.416;6.758;2023-01-06T03:52:28;8.03;;;1.53;;
74900;SDS011;63461;51.416;6.758;2023-01-06T03:57:58;3.73;;;1.20;;
74900;SDS011;63461;51.416;6.758;2023-01-06T04:00:29;3.33;;;1.20;;
74900;SDS011;63461;51.416;6.758;2023-01-06T04:03:06;4.13;;;1.27;;
74900;SDS011;63461;51.416;6.758;2023-01-06T04:05:36;3.83;;;1.00;;
74900;SDS011;63461;51.416;6.758;2023-01-06T04:08:03;3.67;;;1.30;;
74900;SDS011;63461;51.416;6.758;2023-01-06T04:10:29;4.30;;;1.20;;
74900;SDS011;63461;51.416;6.758;2023-01-06T04:12:57;5.07;;;1.27;;
74900;SDS011;63461;51.416;6.758;2023-01-06T04:15:27;4.57;;;1.17;;
74900;SDS011;63461;51.416;6.758;2023-01-06T04:17:54;5.30;;;1.10;;
74900;SDS011;63461;51.416;6.758;2023-01-06T04:20:22;4.00;;;0.90;;
74900;SDS011;63461;51.416;6.758;2023-01-06T04:22:55;10.20;;;1.20;;
74900;SDS011;63461;51.416;6.758;2023-01-06T04:25:24;4.23;;;0.73;;
74900;SDS011;63461;51.416;6.758;2023-01-06T04:27:50;5.20;;;1.00;;
74900;SDS011;63461;51.416;6.758;2023-01-06T04:30:17;5.00;;;1.20;;
74900;SDS011;63461;51.416;6.758;2023-01-06T04:32:43;1.90;;;1.00;;
74900;SDS011;63461;51.416;6.758;2023-01-06T04:35:09;4.13;;;1.10;;
74900;SDS011;63461;51.416;6.758;2023-01-06T04:37:37;2.97;;;1.00;;
74900;SDS011;63461;51.416;6.758;2023-01-06T04:40:03;3.03;;;1.13;;
74900;SDS011;63461;51.416;6.758;2023-01-06T04:42:32;3.53;;;1.10;;
74900;SDS011;63461;51.416;6.758;2023-01-06T04:45:18;3.53;;;0.93;;
74900;SDS011;63461;51.416;6.758;2023-01-06T04:47:43;7.50;;;0.97;;
74900;SDS011;63461;51.416;6.758;2023-01-06T04:50:09;5.73;;;1.13;;
74900;SDS011;63461;51.416;6.758;2023-01-06T04:52:35;4.23;;;1.10;;
74900;SDS011;63461;51.416;6.758;2023-01-06T04:55:01;3.17;;;0.90;;
74900;SDS011;63461;51.416;6.758;2023-01-06T04:57:27;5.00;;;1.20;;
74900;SDS011;63461;51.416;6.758;2023-01-06T04:59:53;7.03;;;1.17;;
74900;SDS011;63461;51.416;6.758;2023-01-06T05:02:19;5.17;;;1.50;;
74900;SDS011;63461;51.416;6.758;2023-01-06T05:04:44;7.77;;;1.60;;
74900;SDS011;63461;51.416;6.758;2023-01-06T05:07:10;8.00;;;1.93;;
74900;SDS011;63461;51.416;6.758;2023-01-06T05:09:36;3.77;;;1.87;;
74900;SDS011;63461;51.416;6.758;2023-01-06T05:12:02;9.60;;;3.63;;
74900;SDS011;63461;51.416;6.758;2023-01-06T05:14:27;7.10;;;2.80;;
74900;SDS011;63461;51.416;6.758;2023-01-06T05:16:53;6.23;;;3.00;;
74900;SDS011;63461;51.416;6.758;2023-01-06T05:19:19;10.03;;;3.77;;
74900;SDS011;63461;51.416;6.758;2023-01-06T05:21:45;9.90;;;3.73;;
74900;SDS011;63461;51.416;6.758;2023-01-06T05:24:10;11.97;;;3.80;;
74900;SDS011;63461;51.416;6.758;2023-01-06T05:26:36;10.70;;;3.47;;
74900;SDS011;63461;51.416;6.758;2023-01-06T05:29:02;7.33;;;1.90;;
74900;SDS011;63461;51.416;6.758;2023-01-06T05:31:28;6.40;;;2.00;;
74900;SDS011;63461;51.416;6.758;2023-01-06T05:33:54;5.57;;;1.70;;
74900;SDS011;63461;51.416;6.758;2023-01-06T05:36:19;7.53;;;1.70;;
74900;SDS011;63461;51.416;6.758;2023-01-06T05:38:54;4.43;;;1.57;;
74900;SDS011;63461;51.416;6.758;2023-01-06T05:41:20;4.73;;;1.07;;
74900;SDS011;63461;51.416;6.758;2023-01-06T05:43:46;4.33;;;1.13;;
74900;SDS011;63461;51.416;6.758;2023-01-06T05:46:12;1.80;;;1.10;;
74900;SDS011;63461;51.416;6.758;2023-01-06T05:48:38;4.73;;;1.33;;
74900;SDS011;63461;51.416;6.758;2023-01-06T05:51:05;3.03;;;1.23;;
74900;SDS011;63461;51.416;6.758;2023-01-06T05:53:33;3.20;;;1.20;;
74900;SDS011;63461;51.416;6.758;2023-01-06T05:56:03;6.00;;;1.30;;
74900;SDS011;63461;51.416;6.758;2023-01-06T05:58:30;3.87;;;1.30;;
74900;SDS011;63461;51.416;6.758;2023-01-06T06:00:59;3.93;;;1.50;;
74900;SDS011;63461;51.416;6.758;2023-01-06T06:03:25;3.53;;;1.73;;
74900;SDS011;63461;51.416;6.758;2023-01-06T06:05:51;3.33;;;1.40;;
74900;SDS011;63461;51.416;6.758;2023-01-06T06:08:17;8.50;;;1.93;;
74900;SDS011;63461;51.416;6.758;2023-01-06T06:10:43;8.63;;;3.00;;
74900;SDS011;63461;51.416;6.758;2023-01-06T06:13:09;13.77;;;3.20;;
74900;SDS011;63461;51.416;6.758;2023-01-06T06:15:34;11.77;;;3.47;;
74900;SDS011;63461;51.416;6.758;2023-01-06T06:18:03;10.17;;;3.57;;
74900;SDS011;63461;51.416;6.758;2023-01-06T06:20:29;8.23;;;2.70;;
74900;SDS011;63461;51.416;6.758;2023-01-06T06:22:55;7.33;;;2.20;;
74900;SDS011;63461;51.416;6.758;2023-01-06T06:25:21;7.77;;;2.17;;
74900;SDS011;63461;51.416;6.758;2023-01-06T06:27:47;5.87;;;1.67;;
74900;SDS011;63461;51.416;6.758;2023-01-06T06:30:12;8.57;;;2.60;;
74900;SDS011;63461;51.416;6.758;2023-01-06T06:32:40;7.50;;;3.60;;
74900;SDS011;63461;51.416;6.758;2023-01-06T06:35:06;20.23;;;4.60;;
74900;SDS011;63461;51.416;6.758;2023-01-06T06:37:32;13.17;;;5.20;;
74900;SDS011;63461;51.416;6.758;2023-01-06T06:39:58;10.93;;;4.10;;
74900;SDS011;63461;51.416;6.758;2023-01-06T06:42:23;7.33;;;2.70;;
74900;SDS011;63461;51.416;6.758;2023-01-06T06:44:49;8.23;;;2.83;;
74900;SDS011;63461;51.416;6.758;2023-01-06T06:47:15;8.97;;;2.30;;
74900;SDS011;63461;51.416;6.758;2023-01-06T06:49:40;5.43;;;1.40;;
74900;SDS011;63461;51.416;6.758;2023-01-06T06:52:06;6.17;;;2.07;;
74900;SDS011;63461;51.416;6.758;2023-01-06T06:54:32;3.70;;;1.40;;
74900;SDS011;63461;51.416;6.758;2023-01-06T06:56:58;6.03;;;1.50;;
74900;SDS011;63461;51.416;6.758;2023-01-06T06:59:23;4.90;;;2.23;;
74900;SDS011;63461;51.416;6.758;2023-01-06T07:01:49;6.57;;;2.00;;
74900;SDS011;63461;51.416;6.758;2023-01-06T07:04:15;9.23;;;1.97;;
74900;SDS011;63461;51.416;6.758;2023-01-06T07:06:40;11.27;;;3.40;;
74900;SDS011;63461;51.416;6.758;2023-01-06T07:09:06;16.03;;;4.60;;
74900;SDS011;63461;51.416;6.758;2023-01-06T07:11:32;9.43;;;3.03;;
74900;SDS011;63461;51.416;6.758;2023-01-06T07:13:58;6.70;;;2.60;;
74900;SDS011;63461;51.416;6.758;2023-01-06T07:16:23;8.27;;;2.40;;
74900;SDS011;63461;51.416;6.758;2023-01-06T07:18:51;5.50;;;1.57;;
74900;SDS011;63461;51.416;6.758;2023-01-06T07:21:17;6.33;;;1.20;;
74900;SDS011;63461;51.416;6.758;2023-01-06T07:23:43;3.03;;;1.30;;
74900;SDS011;63461;51.416;6.758;2023-01-06T07:26:09;5.30;;;1.60;;
74900;SDS011;63461;51.416;6.758;2023-01-06T07:28:35;7.00;;;2.60;;
74900;SDS011;63461;51.416;6.758;2023-01-06T07:31:01;6.00;;;2.70;;
74900;SDS011;63461;51.416;6.758;2023-01-06T07:33:27;8.73;;;2.80;;
74900;SDS011;63461;51.416;6.758;2023-01-06T07:35:54;5.87;;;2.03;;
74900;SDS011;63461;51.416;6.758;2023-01-06T07:38:21;3.80;;;1.23;;
74900;SDS011;63461;51.416;6.758;2023-01-06T07:40:47;6.73;;;1.90;;
74900;SDS011;63461;51.416;6.758;2023-01-06T07:43:13;6.37;;;2.17;;
74900;SDS011;63461;51.416;6.758;2023-01-06T07:45:39;3.57;;;1.50;;
74900;SDS011;63461;51.416;6.758;2023-01-06T07:48:05;4.83;;;1.90;;
74900;SDS011;63461;51.416;6.758;2023-01-06T07:50:31;10.07;;;2.83;;
74900;SDS011;63461;51.416;6.758;2023-01-06T07:52:57;12.93;;;3.00;;
74900;SDS011;63461;51.416;6.758;2023-01-06T07:55:25;6.33;;;2.47;;
74900;SDS011;63461;51.416;6.758;2023-01-06T07:57:51;9.20;;;3.67;;
74900;SDS011;63461;51.416;6.758;2023-01-06T08:00:17;8.93;;;4.20;;
74900;SDS011;63461;51.416;6.758;2023-01-06T08:02:43;12.10;;;4.00;;
74900;SDS011;63461;51.416;6.758;2023-01-06T08:05:09;11.37;;;3.00;;
74900;SDS011;63461;51.416;6.758;2023-01-06T08:07:35;7.37;;;2.33;;
74900;SDS011;63461;51.416;6.758;2023-01-06T08:10:00;4.30;;;2.10;;
74900;SDS011;63461;51.416;6.758;2023-01-06T08:12:26;8.33;;;2.13;;
74900;SDS011;63461;51.416;6.758;2023-01-06T08:14:52;6.97;;;2.93;;
74900;SDS011;63461;51.416;6.758;2023-01-06T08:17:18;8.33;;;2.63;;
74900;SDS011;63461;51.416;6.758;2023-01-06T08:19:43;7.97;;;2.80;;
74900;SDS011;63461;51.416;6.758;2023-01-06T08:22:09;5.60;;;1.93;;
74900;SDS011;63461;51.416;6.758;2023-01-06T08:24:35;5.87;;;1.27;;
74900;SDS011;63461;51.416;6.758;2023-01-06T08:27:01;4.40;;;1.67;;
74900;SDS011;63461;51.416;6.758;2023-01-06T08:29:27;4.73;;;1.37;;
74900;SDS011;63461;51.416;6.758;2023-01-06T08:31:53;1.67;;;0.80;;
74900;SDS011;63461;51.416;6.758;2023-01-06T08:34:19;1.90;;;1.03;;
74900;SDS011;63461;51.416;6.758;2023-01-06T08:36:44;1.47;;;0.60;;
74900;SDS011;63461;51.416;6.758;2023-01-06T08:39:11;2.30;;;0.70;;
74900;SDS011;63461;51.416;6.758;2023-01-06T08:41:38;1.07;;;0.87;;
74900;SDS011;63461;51.416;6.758;2023-01-06T08:44:04;2.13;;;1.00;;
74900;SDS011;63461;51.416;6.758;2023-01-06T08:46:30;1.70;;;0.90;;
74900;SDS011;63461;51.416;6.758;2023-01-06T08:48:57;2.53;;;0.73;;
74900;SDS011;63461;51.416;6.758;2023-01-06T08:51:23;3.40;;;1.00;;
74900;SDS011;63461;51.416;6.758;2023-01-06T08:53:50;2.20;;;0.87;;
74900;SDS011;63461;51.416;6.758;2023-01-06T08:56:20;1.90;;;0.90;;
74900;SDS011;63461;51.416;6.758;2023-01-06T08:58:54;3.10;;;0.97;;
74900;SDS011;63461;51.416;6.758;2023-01-06T09:01:23;5.30;;;1.10;;
74900;SDS011;63461;51.416;6.758;2023-01-06T09:03:51;3.77;;;1.30;;
74900;SDS011;63461;51.416;6.758;2023-01-06T09:06:17;2.10;;;0.80;;
74900;SDS011;63461;51.416;6.758;2023-01-06T09:08:43;1.53;;;0.70;;
74900;SDS011;63461;51.416;6.758;2023-01-06T09:11:10;3.37;;;0.80;;
74900;SDS011;63461;51.416;6.758;2023-01-06T09:13:36;1.40;;;0.70;;
74900;SDS011;63461;51.416;6.758;2023-01-06T09:16:05;2.80;;;1.33;;
74900;SDS011;63461;51.416;6.758;2023-01-06T09:18:32;3.40;;;0.87;;
74900;SDS011;63461;51.416;6.758;2023-01-06T09:20:58;3.93;;;0.97;;
74900;SDS011;63461;51.416;6.758;2023-01-06T09:23:24;2.30;;;0.80;;
74900;SDS011;63461;51.416;6.758;2023-01-06T09:25:50;1.40;;;0.90;;
74900;SDS011;63461;51.416;6.758;2023-01-06T09:28:15;3.87;;;0.80;;
74900;SDS011;63461;51.416;6.758;2023-01-06T09:30:41;2.90;;;1.10;;
74900;SDS011;63461;51.416;6.758;2023-01-06T09:33:07;1.93;;;1.10;;
74900;SDS011;63461;51.416;6.758;2023-01-06T09:35:33;2.17;;;0.90;;
74900;SDS011;63461;51.416;6.758;2023-01-06T09:37:58;3.47;;;0.83;;
74900;SDS011;63461;51.416;6.758;2023-01-06T09:40:27;2.80;;;1.00;;
74900;SDS011;63461;51.416;6.758;2023-01-06T09:43:09;4.17;;;1.17;;
74900;SDS011;63461;51.416;6.758;2023-01-06T09:45:37;2.97;;;0.90;;
74900;SDS011;63461;51.416;6.758;2023-01-06T09:48:08;2.30;;;1.20;;
74900;SDS011;63461;51.416;6.758;2023-01-06T09:50:40;1.77;;;1.00;;
74900;SDS011;63461;51.416;6.758;2023-01-06T09:56:06;2.87;;;1.07;;
74900;SDS011;63461;51.416;6.758;2023-01-06T10:01:21;3.83;;;1.20;;
74900;SDS011;63461;51.416;6.758;2023-01-06T10:03:53;2.63;;;1.17;;
74900;SDS011;63461;51.416;6.758;2023-01-06T10:06:36;3.63;;;1.40;;
74900;SDS011;63461;51.416;6.758;2023-01-06T10:09:16;7.53;;;1.47;;
74900;SDS011;63461;51.416;6.758;2023-01-06T10:17:25;2.60;;;1.50;;
74900;SDS011;63461;51.416;6.758;2023-01-06T10:20:05;2.13;;;1.33;;
74900;SDS011;63461;51.416;6.758;2023-01-06T10:22:47;3.13;;;1.30;;
74900;SDS011;63461;51.416;6.758;2023-01-06T10:25:21;2.93;;;1.40;;
74900;SDS011;63461;51.416;6.758;2023-01-06T10:30:28;3.20;;;1.23;;
74900;SDS011;63461;51.416;6.758;2023-01-06T10:32:59;4.27;;;1.13;;
74900;SDS011;63461;51.416;6.758;2023-01-06T10:35:26;2.07;;;1.00;;
74900;SDS011;63461;51.416;6.758;2023-01-06T10:37:53;1.63;;;1.10;;
74900;SDS011;63461;51.416;6.758;2023-01-06T10:40:22;2.17;;;1.33;;
74900;SDS011;63461;51.416;6.758;2023-01-06T10:42:54;1.73;;;1.00;;
74900;SDS011;63461;51.416;6.758;2023-01-06T10:45:28;1.20;;;1.00;;
74900;SDS011;63461;51.416;6.758;2023-01-06T10:48:12;1.60;;;1.17;;
74900;SDS011;63461;51.416;6.758;2023-01-06T10:50:40;1.77;;;1.20;;
74900;SDS011;63461;51.416;6.758;2023-01-06T10:53:08;2.47;;;1.40;;
74900;SDS011;63461;51.416;6.758;2023-01-06T10:58:13;3.13;;;1.13;;
74900;SDS011;63461;51.416;6.758;2023-01-06T11:01:10;4.17;;;1.50;;
74900;SDS011;63461;51.416;6.758;2023-01-06T11:03:41;3.73;;;1.40;;
74900;SDS011;63461;51.416;6.758;2023-01-06T11:08:54;3.57;;;1.33;;
74900;SDS011;63461;51.416;6.758;2023-01-06T11:11:20;1.80;;;1.30;;
74900;SDS011;63461;51.416;6.758;2023-01-06T11:13:49;2.30;;;1.60;;
74900;SDS011;63461;51.416;6.758;2023-01-06T11:16:23;3.77;;;1.40;;
74900;SDS011;63461;51.416;6.758;2023-01-06T11:18:52;3.07;;;1.50;;
74900;SDS011;63461;51.416;6.758;2023-01-06T11:21:19;4.93;;;1.30;;
74900;SDS011;63461;51.416;6.758;2023-01-06T11:23:46;2.57;;;1.50;;
74900;SDS011;63461;51.416;6.758;2023-01-06T11:26:19;1.73;;;1.50;;
74900;SDS011;63461;51.416;6.758;2023-01-06T11:28:48;3.30;;;1.53;;
74900;SDS011;63461;51.416;6.758;2023-01-06T11:31:22;2.60;;;1.50;;
74900;SDS011;63461;51.416;6.758;2023-01-06T11:33:55;3.23;;;1.50;;
74900;SDS011;63461;51.416;6.758;2023-01-06T11:36:24;1.67;;;1.27;;
74900;SDS011;63461;51.416;6.758;2023-01-06T11:41:24;1.20;;;1.10;;
74900;SDS011;63461;51.416;6.758;2023-01-06T11:44:16;2.03;;;1.40;;
74900;SDS011;63461;51.416;6.758;2023-01-06T11:46:46;5.00;;;1.40;;
74900;SDS011;63461;51.416;6.758;2023-01-06T11:49:25;2.43;;;1.20;;
74900;SDS011;63461;51.416;6.758;2023-01-06T11:51:52;2.87;;;1.40;;
74900;SDS011;63461;51.416;6.758;2023-01-06T11:54:32;3.73;;;1.90;;
74900;SDS011;63461;51.416;6.758;2023-01-06T11:57:01;4.93;;;1.93;;
74900;SDS011;63461;51.416;6.758;2023-01-06T12:02:29;3.13;;;1.30;;
74900;SDS011;63461;51.416;6.758;2023-01-06T12:05:14;3.37;;;1.50;;
74900;SDS011;63461;51.416;6.758;2023-01-06T12:08:10;5.10;;;1.60;;
74900;SDS011;63461;51.416;6.758;2023-01-06T12:10:42;2.63;;;1.40;;
74900;SDS011;63461;51.416;6.758;2023-01-06T12:13:12;3.47;;;1.50;;
74900;SDS011;63461;51.416;6.758;2023-01-06T12:15:39;2.70;;;1.47;;
74900;SDS011;63461;51.416;6.758;2023-01-06T12:18:12;3.83;;;1.23;;
74900;SDS011;63461;51.416;6.758;2023-01-06T12:20:46;4.47;;;1.10;;
74900;SDS011;63461;51.416;6.758;2023-01-06T12:23:23;4.63;;;1.37;;
74900;SDS011;63461;51.416;6.758;2023-01-06T12:25:57;1.70;;;0.97;;
74900;SDS011;63461;51.416;6.758;2023-01-06T12:28:31;2.72;;;1.10;;
74900;SDS011;63461;51.416;6.758;2023-01-06T12:36:46;4.50;;;2.03;;
74900;SDS011;63461;51.416;6.758;2023-01-06T12:47:29;3.23;;;1.10;;
74900;SDS011;63461;51.416;6.758;2023-01-06T12:50:10;2.30;;;1.23;;
74900;SDS011;63461;51.416;6.758;2023-01-06T12:52:53;3.73;;;1.50;;
74900;SDS011;63461;51.416;6.758;2023-01-06T12:55:28;2.03;;;1.00;;
74900;SDS011;63461;51.416;6.758;2023-01-06T13:01:06;4.00;;;1.27;;
74900;SDS011;63461;51.416;6.758;2023-01-06T13:16:34;3.00;;;1.10;;
74900;SDS011;63461;51.416;6.758;2023-01-06T13:22:04;5.77;;;1.20;;
74900;SDS011;63461;51.416;6.758;2023-01-06T13:27:31;3.83;;;1.30;;
74900;SDS011;63461;51.416;6.758;2023-01-06T13:40:18;0.87;;;0.73;;
74900;SDS011;63461;51.416;6.758;2023-01-06T13:42:53;3.13;;;1.10;;
74900;SDS011;63461;51.416;6.758;2023-01-06T13:45:30;3.07;;;1.43;;
74900;SDS011;63461;51.416;6.758;2023-01-06T13:47:58;1.80;;;1.13;;
74900;SDS011;63461;51.416;6.758;2023-01-06T13:50:25;1.93;;;1.33;;
74900;SDS011;63461;51.416;6.758;2023-01-06T13:52:52;1.50;;;1.00;;
74900;SDS011;63461;51.416;6.758;2023-01-06T13:57:51;1.57;;;0.80;;
74900;SDS011;63461;51.416;6.758;2023-01-06T14:00:18;0.77;;;0.67;;
74900;SDS011;63461;51.416;6.758;2023-01-06T14:07:49;1.43;;;0.80;;
74900;SDS011;63461;51.416;6.758;2023-01-06T14:10:41;2.17;;;0.90;;
74900;SDS011;63461;51.416;6.758;2023-01-06T14:13:17;1.60;;;0.80;;
74900;SDS011;63461;51.416;6.758;2023-01-06T14:15:58;2.37;;;0.70;;
74900;SDS011;63461;51.416;6.758;2023-01-06T14:18:38;3.70;;;1.10;;
74900;SDS011;63461;51.416;6.758;2023-01-06T14:23:38;2.07;;;0.90;;
74900;SDS011;63461;51.416;6.758;2023-01-06T14:26:18;1.17;;;1.00;;
74900;SDS011;63461;51.416;6.758;2023-01-06T14:28:45;2.23;;;1.00;;
74900;SDS011;63461;51.416;6.758;2023-01-06T14:33:56;2.70;;;1.10;;
74900;SDS011;63461;51.416;6.758;2023-01-06T14:36:23;1.37;;;0.80;;
74900;SDS011;63461;51.416;6.758;2023-01-06T14:38:55;1.37;;;0.80;;
74900;SDS011;63461;51.416;6.758;2023-01-06T14:41:31;2.53;;;0.93;;
74900;SDS011;63461;51.416;6.758;2023-01-06T14:44:16;2.40;;;1.07;;
74900;SDS011;63461;51.416;6.758;2023-01-06T14:46:58;1.60;;;1.20;;
74900;SDS011;63461;51.416;6.758;2023-01-06T14:49:45;1.93;;;1.27;;
74900;SDS011;63461;51.416;6.758;2023-01-06T14:52:18;1.73;;;1.50;;
74900;SDS011;63461;51.416;6.758;2023-01-06T14:54:56;2.20;;;1.40;;
74900;SDS011;63461;51.416;6.758;2023-01-06T14:57:33;1.63;;;1.23;;
74900;SDS011;63461;51.416;6.758;2023-01-06T15:00:20;1.83;;;1.60;;
74900;SDS011;63461;51.416;6.758;2023-01-06T15:10:30;1.97;;;1.40;;
74900;SDS011;63461;51.416;6.758;2023-01-06T15:13:02;2.57;;;1.60;;
74900;SDS011;63461;51.416;6.758;2023-01-06T15:15:43;1.77;;;1.37;;
74900;SDS011;63461;51.416;6.758;2023-01-06T15:18:09;2.53;;;1.40;;
74900;SDS011;63461;51.416;6.758;2023-01-06T15:20:40;1.63;;;1.40;;
74900;SDS011;63461;51.416;6.758;2023-01-06T15:23:14;1.53;;;1.20;;
74900;SDS011;63461;51.416;6.758;2023-01-06T15:25:45;4.40;;;2.00;;
74900;SDS011;63461;51.416;6.758;2023-01-06T15:30:52;2.80;;;1.33;;
74900;SDS011;63461;51.416;6.758;2023-01-06T15:33:19;3.10;;;1.50;;
74900;SDS011;63461;51.416;6.758;2023-01-06T15:35:47;1.60;;;1.30;;
74900;SDS011;63461;51.416;6.758;2023-01-06T15:40:46;1.77;;;1.20;;
74900;SDS011;63461;51.416;6.758;2023-01-06T15:43:16;2.40;;;1.30;;
74900;SDS011;63461;51.416;6.758;2023-01-06T15:45:43;1.97;;;1.20;;
74900;SDS011;63461;51.416;6.758;2023-01-06T15:48:26;3.57;;;1.57;;
74900;SDS011;63461;51.416;6.758;2023-01-06T15:50:56;4.20;;;2.40;;
74900;SDS011;63461;51.416;6.758;2023-01-06T15:53:26;5.83;;;2.73;;
74900;SDS011;63461;51.416;6.758;2023-01-06T15:55:56;8.73;;;4.33;;
74900;SDS011;63461;51.416;6.758;2023-01-06T16:01:00;14.27;;;7.20;;
74900;SDS011;63461;51.416;6.758;2023-01-06T16:03:30;17.90;;;7.83;;
74900;SDS011;63461;51.416;6.758;2023-01-06T16:06:07;16.63;;;8.13;;
74900;SDS011;63461;51.416;6.758;2023-01-06T16:08:34;14.53;;;7.77;;
74900;SDS011;63461;51.416;6.758;2023-01-06T16:18:39;12.97;;;6.43;;
74900;SDS011;63461;51.416;6.758;2023-01-06T16:21:11;15.73;;;7.53;;
74900;SDS011;63461;51.416;6.758;2023-01-06T16:23:50;16.73;;;7.00;;
74900;SDS011;63461;51.416;6.758;2023-01-06T16:26:26;13.87;;;7.33;;
74900;SDS011;63461;51.416;6.758;2023-01-06T16:28:55;10.87;;;7.10;;
74900;SDS011;63461;51.416;6.758;2023-01-06T16:31:32;13.87;;;7.53;;
74900;SDS011;63461;51.416;6.758;2023-01-06T16:36:45;10.87;;;5.87;;
74900;SDS011;63461;51.416;6.758;2023-01-06T16:39:16;13.47;;;5.87;;
74900;SDS011;63461;51.416;6.758;2023-01-06T16:44:27;8.83;;;5.83;;
74900;SDS011;63461;51.416;6.758;2023-01-06T16:46:56;12.23;;;6.10;;
74900;SDS011;63461;51.416;6.758;2023-01-06T16:49:26;10.70;;;5.63;;
74900;SDS011;63461;51.416;6.758;2023-01-06T16:51:54;9.93;;;5.40;;
74900;SDS011;63461;51.416;6.758;2023-01-06T16:54:20;7.27;;;4.30;;
74900;SDS011;63461;51.416;6.758;2023-01-06T16:56:46;7.90;;;3.60;;
74900;SDS011;63461;51.416;6.758;2023-01-06T16:59:15;6.40;;;3.83;;
74900;SDS011;63461;51.416;6.758;2023-01-06T17:01:42;5.30;;;2.83;;
74900;SDS011;63461;51.416;6.758;2023-01-06T17:04:09;5.47;;;3.57;;
74900;SDS011;63461;51.416;6.758;2023-01-06T17:06:38;5.67;;;3.00;;
74900;SDS011;63461;51.416;6.758;2023-01-06T17:09:21;3.67;;;2.87;;
74900;SDS011;63461;51.416;6.758;2023-01-06T17:11:48;5.77;;;3.07;;
74900;SDS011;63461;51.416;6.758;2023-01-06T17:14:16;4.27;;;2.90;;
74900;SDS011;63461;51.416;6.758;2023-01-06T17:16:43;5.33;;;2.70;;
74900;SDS011;63461;51.416;6.758;2023-01-06T17:19:16;4.07;;;2.93;;
74900;SDS011;63461;51.416;6.758;2023-01-06T17:21:59;5.37;;;3.13;;
74900;SDS011;63461;51.416;6.758;2023-01-06T17:24:36;8.13;;;3.50;;
74900;SDS011;63461;51.416;6.758;2023-01-06T17:27:23;7.23;;;3.87;;
74900;SDS011;63461;51.416;6.758;2023-01-06T17:29:51;8.07;;;5.00;;
74900;SDS011;63461;51.416;6.758;2023-01-06T17:32:35;9.87;;;5.87;;
74900;SDS011;63461;51.416;6.758;2023-01-06T17:35:23;11.17;;;5.90;;
74900;SDS011;63461;51.416;6.758;2023-01-06T17:37:51;10.33;;;5.30;;
74900;SDS011;63461;51.416;6.758;2023-01-06T17:40:18;9.67;;;5.03;;
74900;SDS011;63461;51.416;6.758;2023-01-06T17:42:56;9.50;;;6.00;;